sensor_id;sensor_type;location;lat;lon;timestamp;P1;durP1;ratioP1;P2;durP2;ratioP2
53391;SDS011;41667;51.922;8.850;2022-07-23T00:01:04;8.20;;;4.75;;
53391;SDS011;41667;51.922;8.850;2022-07-23T00:03:29;8.47;;;4.70;;
53391;SDS011;41667;51.922;8.850;2022-07-23T00:05:54;7.53;;;4.82;;
53391;SDS011;41667;51.922;8.850;2022-07-23T00:08:20;8.03;;;5.20;;
53391;SDS011;41667;51.922;8.850;2022-07-23T00:10:45;9.73;;;5.47;;
53391;SDS011;41667;51.922;8.850;2022-07-23T00:13:10;8.88;;;4.97;;
53391;SDS011;41667;51.922;8.850;2022-07-23T00:15:36;9.43;;;5.40;;
53391;SDS011;41667;51.922;8.850;2022-07-23T00:18:01;7.80;;;5.15;;
53391;SDS011;41667;51.922;8.850;2022-07-23T00:20:26;6.73;;;5.80;;
53391;SDS011;41667;51.922;8.850;2022-07-23T00:22:52;9.82;;;5.50;;
53391;SDS011;41667;51.922;8.850;2022-07-23T00:25:18;6.57;;;5.93;;
53391;SDS011;41667;51.922;8.850;2022-07-23T00:27:43;10.27;;;5.80;;
53391;SDS011;41667;51.922;8.850;2022-07-23T00:30:09;8.50;;;5.53;;
53391;SDS011;41667;51.922;8.850;2022-07-23T00:35:11;7.80;;;5.55;;
53391;SDS011;41667;51.922;8.850;2022-07-23T00:37:36;10.65;;;6.18;;
53391;SDS011;41667;51.922;8.850;2022-07-23T00:40:02;10.82;;;5.43;;
53391;SDS011;41667;51.922;8.850;2022-07-23T00:42:27;10.35;;;6.32;;
53391;SDS011;41667;51.922;8.850;2022-07-23T00:44:52;6.43;;;5.20;;
53391;SDS011;41667;51.922;8.850;2022-07-23T00:47:17;10.43;;;5.28;;
53391;SDS011;41667;51.922;8.850;2022-07-23T00:49:42;8.60;;;5.30;;
53391;SDS011;41667;51.922;8.850;2022-07-23T00:52:07;8.00;;;5.43;;
53391;SDS011;41667;51.922;8.850;2022-07-23T00:54:32;14.45;;;5.53;;
53391;SDS011;41667;51.922;8.850;2022-07-23T00:56:58;6.25;;;5.13;;
53391;SDS011;41667;51.922;8.850;2022-07-23T00:59:23;11.40;;;5.47;;
53391;SDS011;41667;51.922;8.850;2022-07-23T01:01:48;9.53;;;5.93;;
53391;SDS011;41667;51.922;8.850;2022-07-23T01:04:14;7.13;;;4.70;;
53391;SDS011;41667;51.922;8.850;2022-07-23T01:06:40;11.70;;;6.15;;
53391;SDS011;41667;51.922;8.850;2022-07-23T01:09:05;6.05;;;5.45;;
53391;SDS011;41667;51.922;8.850;2022-07-23T01:11:34;8.90;;;5.80;;
53391;SDS011;41667;51.922;8.850;2022-07-23T01:14:07;7.70;;;4.88;;
53391;SDS011;41667;51.922;8.850;2022-07-23T01:16:32;6.68;;;4.97;;
53391;SDS011;41667;51.922;8.850;2022-07-23T01:18:57;7.13;;;5.20;;
53391;SDS011;41667;51.922;8.850;2022-07-23T01:21:22;8.68;;;5.57;;
53391;SDS011;41667;51.922;8.850;2022-07-23T01:23:47;9.75;;;5.45;;
53391;SDS011;41667;51.922;8.850;2022-07-23T01:26:13;8.18;;;5.80;;
53391;SDS011;41667;51.922;8.850;2022-07-23T01:28:40;9.88;;;5.60;;
53391;SDS011;41667;51.922;8.850;2022-07-23T01:31:05;9.85;;;4.95;;
53391;SDS011;41667;51.922;8.850;2022-07-23T01:33:31;12.77;;;6.30;;
53391;SDS011;41667;51.922;8.850;2022-07-23T01:35:56;8.52;;;5.78;;
53391;SDS011;41667;51.922;8.850;2022-07-23T01:38:21;8.45;;;5.47;;
53391;SDS011;41667;51.922;8.850;2022-07-23T01:40:46;11.20;;;6.60;;
53391;SDS011;41667;51.922;8.850;2022-07-23T01:43:11;21.25;;;7.35;;
53391;SDS011;41667;51.922;8.850;2022-07-23T01:45:36;11.23;;;6.38;;
53391;SDS011;41667;51.922;8.850;2022-07-23T01:48:01;12.10;;;6.27;;
53391;SDS011;41667;51.922;8.850;2022-07-23T01:50:27;7.60;;;6.20;;
53391;SDS011;41667;51.922;8.850;2022-07-23T01:52:52;12.93;;;6.97;;
53391;SDS011;41667;51.922;8.850;2022-07-23T01:55:17;8.07;;;6.57;;
53391;SDS011;41667;51.922;8.850;2022-07-23T01:57:42;19.00;;;8.80;;
53391;SDS011;41667;51.922;8.850;2022-07-23T02:00:07;10.45;;;7.57;;
53391;SDS011;41667;51.922;8.850;2022-07-23T02:02:33;12.10;;;7.57;;
53391;SDS011;41667;51.922;8.850;2022-07-23T02:04:58;8.35;;;6.85;;
53391;SDS011;41667;51.922;8.850;2022-07-23T02:07:23;12.60;;;7.75;;
53391;SDS011;41667;51.922;8.850;2022-07-23T02:09:48;14.98;;;8.60;;
53391;SDS011;41667;51.922;8.850;2022-07-23T02:12:13;10.80;;;6.70;;
53391;SDS011;41667;51.922;8.850;2022-07-23T02:14:38;9.37;;;7.20;;
53391;SDS011;41667;51.922;8.850;2022-07-23T02:17:03;11.23;;;7.20;;
53391;SDS011;41667;51.922;8.850;2022-07-23T02:19:29;11.20;;;6.95;;
53391;SDS011;41667;51.922;8.850;2022-07-23T02:21:54;9.15;;;6.45;;
53391;SDS011;41667;51.922;8.850;2022-07-23T02:24:19;11.60;;;8.02;;
53391;SDS011;41667;51.922;8.850;2022-07-23T02:26:44;10.60;;;6.87;;
53391;SDS011;41667;51.922;8.850;2022-07-23T02:29:10;9.70;;;7.07;;
53391;SDS011;41667;51.922;8.850;2022-07-23T02:31:36;7.47;;;6.63;;
53391;SDS011;41667;51.922;8.850;2022-07-23T02:34:01;20.20;;;7.43;;
53391;SDS011;41667;51.922;8.850;2022-07-23T02:36:27;13.38;;;6.68;;
53391;SDS011;41667;51.922;8.850;2022-07-23T02:38:52;13.15;;;8.02;;
53391;SDS011;41667;51.922;8.850;2022-07-23T02:41:17;9.27;;;6.57;;
53391;SDS011;41667;51.922;8.850;2022-07-23T02:43:42;8.23;;;6.97;;
53391;SDS011;41667;51.922;8.850;2022-07-23T02:46:07;8.27;;;6.97;;
53391;SDS011;41667;51.922;8.850;2022-07-23T02:48:33;12.00;;;7.78;;
53391;SDS011;41667;51.922;8.850;2022-07-23T02:50:58;11.00;;;6.90;;
53391;SDS011;41667;51.922;8.850;2022-07-23T02:53:23;11.87;;;7.03;;
53391;SDS011;41667;51.922;8.850;2022-07-23T02:55:48;11.67;;;7.20;;
53391;SDS011;41667;51.922;8.850;2022-07-23T02:58:13;9.10;;;6.40;;
53391;SDS011;41667;51.922;8.850;2022-07-23T03:00:38;11.32;;;7.60;;
53391;SDS011;41667;51.922;8.850;2022-07-23T03:03:04;13.15;;;8.15;;
53391;SDS011;41667;51.922;8.850;2022-07-23T03:05:29;16.90;;;7.80;;
53391;SDS011;41667;51.922;8.850;2022-07-23T03:07:54;13.20;;;8.20;;
53391;SDS011;41667;51.922;8.850;2022-07-23T03:10:19;12.13;;;7.28;;
53391;SDS011;41667;51.922;8.850;2022-07-23T03:12:44;12.00;;;7.90;;
53391;SDS011;41667;51.922;8.850;2022-07-23T03:15:09;17.10;;;7.63;;
53391;SDS011;41667;51.922;8.850;2022-07-23T03:17:35;9.90;;;6.93;;
53391;SDS011;41667;51.922;8.850;2022-07-23T03:20:00;9.57;;;7.60;;
53391;SDS011;41667;51.922;8.850;2022-07-23T03:22:25;9.90;;;7.13;;
53391;SDS011;41667;51.922;8.850;2022-07-23T03:24:50;10.45;;;7.40;;
53391;SDS011;41667;51.922;8.850;2022-07-23T03:27:18;18.02;;;8.98;;
53391;SDS011;41667;51.922;8.850;2022-07-23T03:29:44;12.23;;;8.25;;
53391;SDS011;41667;51.922;8.850;2022-07-23T03:32:09;11.73;;;8.90;;
53391;SDS011;41667;51.922;8.850;2022-07-23T03:34:34;11.95;;;7.63;;
53391;SDS011;41667;51.922;8.850;2022-07-23T03:37:00;12.65;;;8.55;;
53391;SDS011;41667;51.922;8.850;2022-07-23T03:39:25;11.48;;;8.43;;
53391;SDS011;41667;51.922;8.850;2022-07-23T03:41:50;12.10;;;8.10;;
53391;SDS011;41667;51.922;8.850;2022-07-23T03:44:15;14.77;;;8.33;;
53391;SDS011;41667;51.922;8.850;2022-07-23T03:46:40;10.43;;;8.10;;
53391;SDS011;41667;51.922;8.850;2022-07-23T03:49:05;14.90;;;8.70;;
53391;SDS011;41667;51.922;8.850;2022-07-23T03:51:31;11.65;;;8.55;;
53391;SDS011;41667;51.922;8.850;2022-07-23T03:53:57;10.85;;;6.78;;
53391;SDS011;41667;51.922;8.850;2022-07-23T03:56:22;9.77;;;6.70;;
53391;SDS011;41667;51.922;8.850;2022-07-23T03:58:47;10.23;;;6.88;;
53391;SDS011;41667;51.922;8.850;2022-07-23T04:01:12;11.38;;;7.93;;
53391;SDS011;41667;51.922;8.850;2022-07-23T04:03:37;13.25;;;7.88;;
53391;SDS011;41667;51.922;8.850;2022-07-23T04:06:03;13.70;;;7.97;;
53391;SDS011;41667;51.922;8.850;2022-07-23T04:08:28;14.18;;;7.97;;
53391;SDS011;41667;51.922;8.850;2022-07-23T04:10:53;10.40;;;7.35;;
53391;SDS011;41667;51.922;8.850;2022-07-23T04:13:18;11.40;;;8.23;;
53391;SDS011;41667;51.922;8.850;2022-07-23T04:15:44;11.15;;;7.72;;
53391;SDS011;41667;51.922;8.850;2022-07-23T04:18:09;11.63;;;8.00;;
53391;SDS011;41667;51.922;8.850;2022-07-23T04:20:34;12.75;;;8.35;;
53391;SDS011;41667;51.922;8.850;2022-07-23T04:22:59;15.98;;;9.23;;
53391;SDS011;41667;51.922;8.850;2022-07-23T04:25:24;12.93;;;8.93;;
53391;SDS011;41667;51.922;8.850;2022-07-23T04:27:49;15.25;;;9.80;;
53391;SDS011;41667;51.922;8.850;2022-07-23T04:30:14;15.98;;;9.68;;
53391;SDS011;41667;51.922;8.850;2022-07-23T04:32:40;15.82;;;11.43;;
53391;SDS011;41667;51.922;8.850;2022-07-23T04:35:05;25.88;;;11.95;;
53391;SDS011;41667;51.922;8.850;2022-07-23T04:37:30;21.02;;;12.70;;
53391;SDS011;41667;51.922;8.850;2022-07-23T04:39:55;22.90;;;12.57;;
53391;SDS011;41667;51.922;8.850;2022-07-23T04:42:21;26.33;;;12.60;;
53391;SDS011;41667;51.922;8.850;2022-07-23T04:44:46;18.70;;;11.75;;
53391;SDS011;41667;51.922;8.850;2022-07-23T04:47:11;20.02;;;12.70;;
53391;SDS011;41667;51.922;8.850;2022-07-23T04:49:36;18.83;;;11.23;;
53391;SDS011;41667;51.922;8.850;2022-07-23T04:52:01;20.23;;;12.68;;
53391;SDS011;41667;51.922;8.850;2022-07-23T04:54:26;20.08;;;12.55;;
53391;SDS011;41667;51.922;8.850;2022-07-23T04:56:51;21.63;;;13.95;;
53391;SDS011;41667;51.922;8.850;2022-07-23T04:59:17;19.17;;;11.30;;
53391;SDS011;41667;51.922;8.850;2022-07-23T05:01:42;21.40;;;12.63;;
53391;SDS011;41667;51.922;8.850;2022-07-23T05:04:07;19.10;;;11.68;;
53391;SDS011;41667;51.922;8.850;2022-07-23T05:06:32;21.75;;;12.80;;
53391;SDS011;41667;51.922;8.850;2022-07-23T05:08:57;20.73;;;12.57;;
53391;SDS011;41667;51.922;8.850;2022-07-23T05:11:22;17.95;;;12.55;;
53391;SDS011;41667;51.922;8.850;2022-07-23T05:13:47;17.05;;;11.38;;
53391;SDS011;41667;51.922;8.850;2022-07-23T05:16:13;26.77;;;12.35;;
53391;SDS011;41667;51.922;8.850;2022-07-23T05:18:38;21.40;;;12.32;;
53391;SDS011;41667;51.922;8.850;2022-07-23T05:21:03;18.50;;;10.90;;
53391;SDS011;41667;51.922;8.850;2022-07-23T05:23:28;21.90;;;12.07;;
53391;SDS011;41667;51.922;8.850;2022-07-23T05:25:53;22.83;;;10.60;;
53391;SDS011;41667;51.922;8.850;2022-07-23T05:28:18;20.93;;;11.60;;
53391;SDS011;41667;51.922;8.850;2022-07-23T05:30:43;17.77;;;12.10;;
53391;SDS011;41667;51.922;8.850;2022-07-23T05:33:09;17.02;;;11.25;;
53391;SDS011;41667;51.922;8.850;2022-07-23T05:35:34;15.70;;;11.13;;
53391;SDS011;41667;51.922;8.850;2022-07-23T05:37:59;19.00;;;11.87;;
53391;SDS011;41667;51.922;8.850;2022-07-23T05:40:24;21.17;;;13.27;;
53391;SDS011;41667;51.922;8.850;2022-07-23T05:42:49;20.90;;;13.52;;
53391;SDS011;41667;51.922;8.850;2022-07-23T05:45:15;21.27;;;12.38;;
53391;SDS011;41667;51.922;8.850;2022-07-23T05:47:41;18.10;;;12.35;;
53391;SDS011;41667;51.922;8.850;2022-07-23T05:50:06;20.23;;;12.63;;
53391;SDS011;41667;51.922;8.850;2022-07-23T05:52:31;20.55;;;11.75;;
53391;SDS011;41667;51.922;8.850;2022-07-23T05:54:56;19.27;;;12.60;;
53391;SDS011;41667;51.922;8.850;2022-07-23T05:57:21;16.67;;;11.63;;
53391;SDS011;41667;51.922;8.850;2022-07-23T05:59:47;18.50;;;12.63;;
53391;SDS011;41667;51.922;8.850;2022-07-23T06:02:12;18.05;;;13.60;;
53391;SDS011;41667;51.922;8.850;2022-07-23T06:04:37;19.45;;;12.45;;
53391;SDS011;41667;51.922;8.850;2022-07-23T06:07:02;16.20;;;10.98;;
53391;SDS011;41667;51.922;8.850;2022-07-23T06:09:27;22.50;;;12.93;;
53391;SDS011;41667;51.922;8.850;2022-07-23T06:11:53;25.73;;;13.13;;
53391;SDS011;41667;51.922;8.850;2022-07-23T06:14:18;17.83;;;13.60;;
53391;SDS011;41667;51.922;8.850;2022-07-23T06:16:43;17.52;;;12.18;;
53391;SDS011;41667;51.922;8.850;2022-07-23T06:19:08;21.00;;;13.40;;
53391;SDS011;41667;51.922;8.850;2022-07-23T06:21:33;16.10;;;11.52;;
53391;SDS011;41667;51.922;8.850;2022-07-23T06:23:58;28.53;;;11.67;;
53391;SDS011;41667;51.922;8.850;2022-07-23T06:26:24;17.27;;;11.60;;
53391;SDS011;41667;51.922;8.850;2022-07-23T06:28:49;18.17;;;12.07;;
53391;SDS011;41667;51.922;8.850;2022-07-23T06:31:14;16.05;;;11.80;;
53391;SDS011;41667;51.922;8.850;2022-07-23T06:33:39;21.60;;;11.85;;
53391;SDS011;41667;51.922;8.850;2022-07-23T06:36:04;15.77;;;11.15;;
53391;SDS011;41667;51.922;8.850;2022-07-23T06:38:29;18.85;;;11.52;;
53391;SDS011;41667;51.922;8.850;2022-07-23T06:40:55;18.10;;;11.65;;
53391;SDS011;41667;51.922;8.850;2022-07-23T06:43:20;14.85;;;11.27;;
53391;SDS011;41667;51.922;8.850;2022-07-23T06:45:45;19.80;;;11.60;;
53391;SDS011;41667;51.922;8.850;2022-07-23T06:48:10;12.73;;;10.25;;
53391;SDS011;41667;51.922;8.850;2022-07-23T06:50:35;13.93;;;9.77;;
53391;SDS011;41667;51.922;8.850;2022-07-23T06:53:00;12.47;;;8.93;;
53391;SDS011;41667;51.922;8.850;2022-07-23T06:55:26;8.60;;;6.73;;
53391;SDS011;41667;51.922;8.850;2022-07-23T06:57:51;7.70;;;6.18;;
53391;SDS011;41667;51.922;8.850;2022-07-23T07:00:16;11.50;;;6.10;;
53391;SDS011;41667;51.922;8.850;2022-07-23T07:02:41;7.27;;;5.73;;
53391;SDS011;41667;51.922;8.850;2022-07-23T07:05:06;9.00;;;6.53;;
53391;SDS011;41667;51.922;8.850;2022-07-23T07:07:32;9.02;;;5.93;;
53391;SDS011;41667;51.922;8.850;2022-07-23T07:09:58;7.47;;;5.82;;
53391;SDS011;41667;51.922;8.850;2022-07-23T07:12:23;9.20;;;6.83;;
53391;SDS011;41667;51.922;8.850;2022-07-23T07:14:48;9.77;;;6.30;;
53391;SDS011;41667;51.922;8.850;2022-07-23T07:17:13;9.23;;;6.18;;
53391;SDS011;41667;51.922;8.850;2022-07-23T07:19:40;9.50;;;6.05;;
53391;SDS011;41667;51.922;8.850;2022-07-23T07:22:05;9.80;;;6.45;;
53391;SDS011;41667;51.922;8.850;2022-07-23T07:24:30;12.13;;;6.30;;
53391;SDS011;41667;51.922;8.850;2022-07-23T07:26:55;8.82;;;6.13;;
53391;SDS011;41667;51.922;8.850;2022-07-23T07:29:20;10.63;;;6.97;;
53391;SDS011;41667;51.922;8.850;2022-07-23T07:31:46;10.38;;;6.57;;
53391;SDS011;41667;51.922;8.850;2022-07-23T07:34:11;9.40;;;5.20;;
53391;SDS011;41667;51.922;8.850;2022-07-23T07:36:36;9.70;;;5.93;;
53391;SDS011;41667;51.922;8.850;2022-07-23T07:39:02;10.48;;;5.88;;
53391;SDS011;41667;51.922;8.850;2022-07-23T07:41:27;12.15;;;6.28;;
53391;SDS011;41667;51.922;8.850;2022-07-23T07:43:52;11.27;;;5.82;;
53391;SDS011;41667;51.922;8.850;2022-07-23T07:46:18;11.63;;;6.37;;
53391;SDS011;41667;51.922;8.850;2022-07-23T07:48:43;11.80;;;5.97;;
53391;SDS011;41667;51.922;8.850;2022-07-23T07:51:08;8.90;;;5.63;;
53391;SDS011;41667;51.922;8.850;2022-07-23T07:53:33;6.40;;;5.57;;
53391;SDS011;41667;51.922;8.850;2022-07-23T07:55:58;9.90;;;6.18;;
53391;SDS011;41667;51.922;8.850;2022-07-23T07:58:24;9.07;;;5.50;;
53391;SDS011;41667;51.922;8.850;2022-07-23T08:00:49;7.25;;;4.72;;
53391;SDS011;41667;51.922;8.850;2022-07-23T08:03:14;8.93;;;4.57;;
53391;SDS011;41667;51.922;8.850;2022-07-23T08:05:39;5.23;;;4.73;;
53391;SDS011;41667;51.922;8.850;2022-07-23T08:08:04;8.57;;;4.82;;
53391;SDS011;41667;51.922;8.850;2022-07-23T08:10:30;8.70;;;5.17;;
53391;SDS011;41667;51.922;8.850;2022-07-23T08:12:56;6.97;;;4.47;;
53391;SDS011;41667;51.922;8.850;2022-07-23T08:15:22;8.07;;;4.82;;
53391;SDS011;41667;51.922;8.850;2022-07-23T08:17:47;7.15;;;4.68;;
53391;SDS011;41667;51.922;8.850;2022-07-23T08:20:13;5.90;;;4.72;;
53391;SDS011;41667;51.922;8.850;2022-07-23T08:22:49;7.00;;;4.38;;
53391;SDS011;41667;51.922;8.850;2022-07-23T08:25:16;13.38;;;5.50;;
53391;SDS011;41667;51.922;8.850;2022-07-23T08:27:41;7.03;;;4.70;;
53391;SDS011;41667;51.922;8.850;2022-07-23T08:30:07;7.00;;;4.23;;
53391;SDS011;41667;51.922;8.850;2022-07-23T08:32:32;6.10;;;4.20;;
53391;SDS011;41667;51.922;8.850;2022-07-23T08:34:57;6.80;;;4.57;;
53391;SDS011;41667;51.922;8.850;2022-07-23T08:37:22;6.20;;;3.93;;
53391;SDS011;41667;51.922;8.850;2022-07-23T08:39:47;10.10;;;4.18;;
53391;SDS011;41667;51.922;8.850;2022-07-23T08:42:13;5.32;;;4.10;;
53391;SDS011;41667;51.922;8.850;2022-07-23T08:44:39;9.07;;;4.22;;
53391;SDS011;41667;51.922;8.850;2022-07-23T08:47:07;5.38;;;3.50;;
53391;SDS011;41667;51.922;8.850;2022-07-23T08:49:34;7.40;;;4.07;;
53391;SDS011;41667;51.922;8.850;2022-07-23T08:51:59;5.40;;;3.97;;
53391;SDS011;41667;51.922;8.850;2022-07-23T08:54:25;4.38;;;3.92;;
53391;SDS011;41667;51.922;8.850;2022-07-23T08:56:51;9.88;;;4.30;;
53391;SDS011;41667;51.922;8.850;2022-07-23T08:59:16;6.90;;;4.00;;
53391;SDS011;41667;51.922;8.850;2022-07-23T09:01:41;7.68;;;4.35;;
53391;SDS011;41667;51.922;8.850;2022-07-23T09:04:08;11.75;;;7.05;;
53391;SDS011;41667;51.922;8.850;2022-07-23T09:06:33;4.93;;;4.43;;
53391;SDS011;41667;51.922;8.850;2022-07-23T09:08:58;6.97;;;3.67;;
53391;SDS011;41667;51.922;8.850;2022-07-23T09:11:40;8.23;;;3.75;;
53391;SDS011;41667;51.922;8.850;2022-07-23T09:14:10;5.07;;;4.13;;
53391;SDS011;41667;51.922;8.850;2022-07-23T09:16:35;7.07;;;3.47;;
53391;SDS011;41667;51.922;8.850;2022-07-23T09:19:01;6.60;;;3.83;;
53391;SDS011;41667;51.922;8.850;2022-07-23T09:21:28;6.57;;;4.30;;
53391;SDS011;41667;51.922;8.850;2022-07-23T09:23:55;5.00;;;3.83;;
53391;SDS011;41667;51.922;8.850;2022-07-23T09:26:39;5.60;;;3.53;;
53391;SDS011;41667;51.922;8.850;2022-07-23T09:29:06;6.68;;;4.05;;
53391;SDS011;41667;51.922;8.850;2022-07-23T09:31:53;6.15;;;4.10;;
53391;SDS011;41667;51.922;8.850;2022-07-23T09:34:21;5.63;;;3.17;;
53391;SDS011;41667;51.922;8.850;2022-07-23T09:36:46;4.00;;;3.60;;
53391;SDS011;41667;51.922;8.850;2022-07-23T09:39:13;6.50;;;3.38;;
53391;SDS011;41667;51.922;8.850;2022-07-23T09:41:42;3.78;;;3.10;;
53391;SDS011;41667;51.922;8.850;2022-07-23T09:44:12;5.32;;;3.78;;
53391;SDS011;41667;51.922;8.850;2022-07-23T09:46:37;4.75;;;3.25;;
53391;SDS011;41667;51.922;8.850;2022-07-23T09:49:12;3.22;;;2.90;;
53391;SDS011;41667;51.922;8.850;2022-07-23T09:51:54;4.20;;;3.75;;
53391;SDS011;41667;51.922;8.850;2022-07-23T09:54:30;3.47;;;2.92;;
53391;SDS011;41667;51.922;8.850;2022-07-23T09:56:59;5.00;;;2.97;;
53391;SDS011;41667;51.922;8.850;2022-07-23T09:59:28;3.25;;;2.95;;
53391;SDS011;41667;51.922;8.850;2022-07-23T10:01:55;4.60;;;3.45;;
53391;SDS011;41667;51.922;8.850;2022-07-23T10:04:21;6.20;;;2.40;;
53391;SDS011;41667;51.922;8.850;2022-07-23T10:06:47;2.83;;;2.60;;
53391;SDS011;41667;51.922;8.850;2022-07-23T10:09:15;2.70;;;2.50;;
53391;SDS011;41667;51.922;8.850;2022-07-23T10:11:41;3.65;;;2.83;;
53391;SDS011;41667;51.922;8.850;2022-07-23T10:14:06;5.90;;;2.83;;
53391;SDS011;41667;51.922;8.850;2022-07-23T10:16:31;2.63;;;2.40;;
53391;SDS011;41667;51.922;8.850;2022-07-23T10:18:56;6.80;;;2.92;;
53391;SDS011;41667;51.922;8.850;2022-07-23T10:21:34;4.32;;;3.22;;
53391;SDS011;41667;51.922;8.850;2022-07-23T10:26:38;4.70;;;2.78;;
53391;SDS011;41667;51.922;8.850;2022-07-23T10:29:16;5.30;;;2.30;;
53391;SDS011;41667;51.922;8.850;2022-07-23T10:31:56;5.78;;;2.45;;
53391;SDS011;41667;51.922;8.850;2022-07-23T10:34:44;3.13;;;2.83;;
53391;SDS011;41667;51.922;8.850;2022-07-23T10:37:23;4.15;;;2.72;;
53391;SDS011;41667;51.922;8.850;2022-07-23T10:42:35;4.40;;;2.50;;
53391;SDS011;41667;51.922;8.850;2022-07-23T10:45:00;2.65;;;2.38;;
53391;SDS011;41667;51.922;8.850;2022-07-23T10:47:29;6.53;;;2.67;;
53391;SDS011;41667;51.922;8.850;2022-07-23T10:55:38;3.45;;;2.30;;
53391;SDS011;41667;51.922;8.850;2022-07-23T10:58:04;3.10;;;1.90;;
53391;SDS011;41667;51.922;8.850;2022-07-23T11:00:33;4.03;;;2.63;;
53391;SDS011;41667;51.922;8.850;2022-07-23T11:02:59;2.50;;;2.20;;
53391;SDS011;41667;51.922;8.850;2022-07-23T11:05:25;3.25;;;2.03;;
53391;SDS011;41667;51.922;8.850;2022-07-23T11:08:09;2.95;;;2.03;;
53391;SDS011;41667;51.922;8.850;2022-07-23T11:31:54;2.80;;;1.80;;
53391;SDS011;41667;51.922;8.850;2022-07-23T11:36:54;2.78;;;1.60;;
53391;SDS011;41667;51.922;8.850;2022-07-23T11:39:20;5.00;;;2.20;;
53391;SDS011;41667;51.922;8.850;2022-07-23T11:41:45;1.88;;;1.45;;
53391;SDS011;41667;51.922;8.850;2022-07-23T11:44:24;1.80;;;1.63;;
53391;SDS011;41667;51.922;8.850;2022-07-23T11:46:59;4.10;;;1.95;;
53391;SDS011;41667;51.922;8.850;2022-07-23T11:49:25;2.55;;;1.58;;
53391;SDS011;41667;51.922;8.850;2022-07-23T11:54:31;1.40;;;1.30;;
53391;SDS011;41667;51.922;8.850;2022-07-23T11:56:59;2.45;;;1.25;;
53391;SDS011;41667;51.922;8.850;2022-07-23T11:59:24;2.33;;;1.55;;
53391;SDS011;41667;51.922;8.850;2022-07-23T12:01:58;2.67;;;1.25;;
53391;SDS011;41667;51.922;8.850;2022-07-23T12:04:24;2.63;;;1.80;;
53391;SDS011;41667;51.922;8.850;2022-07-23T12:06:50;3.53;;;1.77;;
53391;SDS011;41667;51.922;8.850;2022-07-23T12:09:15;1.98;;;1.52;;
53391;SDS011;41667;51.922;8.850;2022-07-23T12:11:55;3.27;;;1.53;;
53391;SDS011;41667;51.922;8.850;2022-07-23T12:14:21;1.85;;;1.60;;
53391;SDS011;41667;51.922;8.850;2022-07-23T12:16:46;1.98;;;1.40;;
53391;SDS011;41667;51.922;8.850;2022-07-23T12:19:11;1.85;;;1.75;;
53391;SDS011;41667;51.922;8.850;2022-07-23T12:21:38;2.08;;;1.50;;
53391;SDS011;41667;51.922;8.850;2022-07-23T12:24:06;1.60;;;1.50;;
53391;SDS011;41667;51.922;8.850;2022-07-23T12:26:32;3.60;;;1.90;;
53391;SDS011;41667;51.922;8.850;2022-07-23T12:28:57;2.05;;;1.75;;
53391;SDS011;41667;51.922;8.850;2022-07-23T12:31:26;2.85;;;1.70;;
53391;SDS011;41667;51.922;8.850;2022-07-23T12:33:51;4.03;;;1.23;;
53391;SDS011;41667;51.922;8.850;2022-07-23T12:36:16;2.50;;;1.60;;
53391;SDS011;41667;51.922;8.850;2022-07-23T12:38:42;2.20;;;1.42;;
53391;SDS011;41667;51.922;8.850;2022-07-23T12:41:08;2.83;;;1.33;;
53391;SDS011;41667;51.922;8.850;2022-07-23T12:43:35;2.30;;;1.45;;
53391;SDS011;41667;51.922;8.850;2022-07-23T12:46:04;6.57;;;2.00;;
53391;SDS011;41667;51.922;8.850;2022-07-23T12:48:31;1.40;;;1.30;;
53391;SDS011;41667;51.922;8.850;2022-07-23T12:53:25;1.30;;;1.20;;
53391;SDS011;41667;51.922;8.850;2022-07-23T12:55:56;4.72;;;1.42;;
53391;SDS011;41667;51.922;8.850;2022-07-23T12:58:23;1.27;;;1.23;;
53391;SDS011;41667;51.922;8.850;2022-07-23T13:00:49;1.40;;;1.23;;
53391;SDS011;41667;51.922;8.850;2022-07-23T13:03:54;1.35;;;1.25;;
53391;SDS011;41667;51.922;8.850;2022-07-23T13:06:10;2.17;;;1.98;;
53391;SDS011;41667;51.922;8.850;2022-07-23T13:08:37;2.03;;;1.30;;
53391;SDS011;41667;51.922;8.850;2022-07-23T13:11:03;3.55;;;1.55;;
53391;SDS011;41667;51.922;8.850;2022-07-23T13:13:29;2.25;;;1.38;;
53391;SDS011;41667;51.922;8.850;2022-07-23T13:15:56;1.90;;;1.15;;
53391;SDS011;41667;51.922;8.850;2022-07-23T13:18:21;2.25;;;1.20;;
53391;SDS011;41667;51.922;8.850;2022-07-23T13:20:47;2.00;;;1.20;;
53391;SDS011;41667;51.922;8.850;2022-07-23T13:23:12;1.70;;;1.27;;
53391;SDS011;41667;51.922;8.850;2022-07-23T13:25:37;3.00;;;1.55;;
53391;SDS011;41667;51.922;8.850;2022-07-23T13:28:03;1.33;;;1.02;;
53391;SDS011;41667;51.922;8.850;2022-07-23T13:30:28;2.22;;;1.20;;
53391;SDS011;41667;51.922;8.850;2022-07-23T13:32:53;1.30;;;1.20;;
53391;SDS011;41667;51.922;8.850;2022-07-23T13:35:19;1.20;;;1.10;;
53391;SDS011;41667;51.922;8.850;2022-07-23T13:37:44;2.40;;;1.27;;
53391;SDS011;41667;51.922;8.850;2022-07-23T13:40:09;1.40;;;1.30;;
53391;SDS011;41667;51.922;8.850;2022-07-23T13:42:35;6.37;;;1.33;;
53391;SDS011;41667;51.922;8.850;2022-07-23T13:45:00;1.52;;;1.13;;
53391;SDS011;41667;51.922;8.850;2022-07-23T13:47:25;2.88;;;1.23;;
53391;SDS011;41667;51.922;8.850;2022-07-23T13:49:51;2.05;;;1.10;;
53391;SDS011;41667;51.922;8.850;2022-07-23T13:52:16;2.20;;;1.00;;
53391;SDS011;41667;51.922;8.850;2022-07-23T13:54:41;3.85;;;1.00;;
53391;SDS011;41667;51.922;8.850;2022-07-23T13:57:06;1.23;;;1.13;;
53391;SDS011;41667;51.922;8.850;2022-07-23T13:59:33;0.88;;;0.88;;
53391;SDS011;41667;51.922;8.850;2022-07-23T14:01:59;1.00;;;1.00;;
53391;SDS011;41667;51.922;8.850;2022-07-23T14:04:24;1.07;;;1.00;;
53391;SDS011;41667;51.922;8.850;2022-07-23T14:06:49;0.88;;;0.85;;
53391;SDS011;41667;51.922;8.850;2022-07-23T14:09:14;4.00;;;1.30;;
53391;SDS011;41667;51.922;8.850;2022-07-23T14:11:39;1.02;;;1.02;;
53391;SDS011;41667;51.922;8.850;2022-07-23T14:14:04;0.93;;;0.93;;
53391;SDS011;41667;51.922;8.850;2022-07-23T14:16:30;1.92;;;0.90;;
53391;SDS011;41667;51.922;8.850;2022-07-23T14:18:55;1.60;;;1.00;;
53391;SDS011;41667;51.922;8.850;2022-07-23T14:21:20;1.13;;;1.10;;
53391;SDS011;41667;51.922;8.850;2022-07-23T14:23:45;2.58;;;1.45;;
53391;SDS011;41667;51.922;8.850;2022-07-23T14:26:10;1.48;;;0.90;;
53391;SDS011;41667;51.922;8.850;2022-07-23T14:28:35;1.40;;;0.80;;
53391;SDS011;41667;51.922;8.850;2022-07-23T14:31:00;1.80;;;0.90;;
53391;SDS011;41667;51.922;8.850;2022-07-23T14:33:26;6.63;;;0.98;;
53391;SDS011;41667;51.922;8.850;2022-07-23T14:35:51;3.83;;;1.00;;
53391;SDS011;41667;51.922;8.850;2022-07-23T14:38:16;2.43;;;0.83;;
53391;SDS011;41667;51.922;8.850;2022-07-23T14:40:41;1.23;;;0.80;;
53391;SDS011;41667;51.922;8.850;2022-07-23T14:43:07;0.70;;;0.70;;
53391;SDS011;41667;51.922;8.850;2022-07-23T14:45:32;1.48;;;1.00;;
53391;SDS011;41667;51.922;8.850;2022-07-23T14:47:58;2.53;;;0.97;;
53391;SDS011;41667;51.922;8.850;2022-07-23T14:50:23;0.80;;;0.77;;
53391;SDS011;41667;51.922;8.850;2022-07-23T14:52:48;1.63;;;0.87;;
53391;SDS011;41667;51.922;8.850;2022-07-23T14:55:14;1.02;;;0.93;;
53391;SDS011;41667;51.922;8.850;2022-07-23T14:57:41;0.90;;;0.90;;
53391;SDS011;41667;51.922;8.850;2022-07-23T15:00:07;0.70;;;0.70;;
53391;SDS011;41667;51.922;8.850;2022-07-23T15:02:32;2.15;;;0.70;;
53391;SDS011;41667;51.922;8.850;2022-07-23T15:04:57;1.75;;;1.10;;
53391;SDS011;41667;51.922;8.850;2022-07-23T15:07:26;2.05;;;0.90;;
53391;SDS011;41667;51.922;8.850;2022-07-23T15:09:51;0.77;;;0.70;;
53391;SDS011;41667;51.922;8.850;2022-07-23T15:12:16;1.80;;;0.80;;
53391;SDS011;41667;51.922;8.850;2022-07-23T15:14:42;1.08;;;0.80;;
53391;SDS011;41667;51.922;8.850;2022-07-23T15:17:07;0.90;;;0.90;;